Time;durP1;ratioP1;P1;durP2;ratioP2;P2;SDS_P1;SDS_P2;PMS_P1;PMS_P2;Temp;Humidity;BMP_temperature;BMP_pressure;BME280_temperature;BME280_humidity;BME280_pressure;Samples;Min_cycle;Max_cycle;Signal;HPM_P1;HPM_P2
2019/05/31 00:00:42;;;;;;;6.7;2.7;;;;;;;10.4;78.3457;948.3967;;;;
2019/05/31 00:03:10;;;;;;;4.1;2.6;;;;;;;10.47;78.59863;948.3616;;;;
2019/05/31 00:05:38;;;;;;;5.4;2.8;;;;;;;10.43;78.66016;948.3517;;;;
2019/05/31 00:08:11;;;;;;;4.3;2.8;;;;;;;10.46;79.36035;948.4091;;;;
2019/05/31 00:10:47;;;;;;;3.6;2.5;;;;;;;10.56;77.48438;948.2947;;;;
2019/05/31 00:13:19;;;;;;;4.9;2.6;;;;;;;10.42;77.79102;948.3356;;;;
2019/05/31 00:15:43;;;;;;;5.4;2.4;;;;;;;10.46;77.33008;948.2347;;;;
2019/05/31 00:18:16;;;;;;;4.1;2.6;;;;;;;10.32;77.65918;948.3049;;;;
2019/05/31 00:20:47;;;;;;;3.8;2.5;;;;;;;10.1;78.42871;948.2878;;;;
2019/05/31 00:23:11;;;;;;;4.6;2.6;;;;;;;9.94;79.37012;948.2698;;;;
2019/05/31 00:25:36;;;;;;;3.7;2.3;;;;;;;9.72;80.19434;948.2227;;;;
2019/05/31 00:28:09;;;;;;;7.6;2.9;;;;;;;9.41;81.95898;948.254;;;;
2019/05/31 00:30:57;;;;;;;5.8;2.4;;;;;;;9.45;82.0918;948.2551;;;;
2019/05/31 00:33:24;;;;;;;7.9;2.6;;;;;;;9.23;82.25488;948.1864;;;;
2019/05/31 00:36:01;;;;;;;3.6;2.4;;;;;;;9.04;83.62793;948.1498;;;;
2019/05/31 00:38:28;;;;;;;4.3;2.4;;;;;;;9.1;83.00293;948.1072;;;;
2019/05/31 00:40:53;;;;;;;4.3;2.3;;;;;;;9.24;82.7793;948.0633;;;;
2019/05/31 00:43:22;;;;;;;4.8;2.3;;;;;;;9.17;82.24121;948.0894;;;;
2019/05/31 00:45:57;;;;;;;3.5;2.6;;;;;;;9.08;82.69238;948.1169;;;;
2019/05/31 00:48:49;;;;;;;3.8;2.7;;;;;;;9.1;82.91211;948.0812;;;;
2019/05/31 00:51:28;;;;;;;4.3;2.6;;;;;;;9.04;83.57324;948.1492;;;;
2019/05/31 00:53:53;;;;;;;3.9;2.7;;;;;;;9.15;83.07031;948.1628;;;;
2019/05/31 00:56:24;;;;;;;2.7;2.4;;;;;;;9.43;81.9873;948.1378;;;;
2019/05/31 00:58:53;;;;;;;5.6;2.8;;;;;;;9.6;81.08398;948.1674;;;;
2019/05/31 01:01:22;;;;;;;10.4;5;;;;;;;9.51;81.18066;948.1153;;;;
2019/05/31 01:03:54;;;;;;;10.5;4.6;;;;;;;9.35;82.24316;948.2114;;;;
2019/05/31 01:06:32;;;;;;;8.5;4.4;;;;;;;9.5;82.27051;948.1969;;;;
2019/05/31 01:08:56;;;;;;;5.5;3.5;;;;;;;9.55;81.73633;948.1882;;;;
2019/05/31 01:11:23;;;;;;;6.9;3.7;;;;;;;9.84;80.83203;948.0951;;;;
2019/05/31 01:14:00;;;;;;;6.7;3.5;;;;;;;10.04;79.72852;948.1097;;;;
2019/05/31 01:16:22;;;;;;;9.9;2.8;;;;;;;9.8;80.41309;948.0514;;;;
2019/05/31 01:18:55;;;;;;;5.4;2.9;;;;;;;9.98;79.74121;948.0967;;;;
2019/05/31 01:21:45;;;;;;;4.9;2.9;;;;;;;9.93;80.03906;948.0331;;;;
2019/05/31 01:23:53;;;;;;;3.3;2.4;;;;;;;9.82;80.42969;948.0373;;;;
2019/05/31 01:26:24;;;;;;;3.3;2.5;;;;;;;9.94;79.92871;948.0447;;;;
2019/05/31 01:28:55;;;;;;;7.9;2.8;;;;;;;10.02;79.89648;948.0605;;;;
2019/05/31 01:31:27;;;;;;;5.1;2.8;;;;;;;10.03;80.02539;947.9871;;;;
2019/05/31 01:34:00;;;;;;;3.5;2.5;;;;;;;9.89;80.02148;947.9852;;;;
2019/05/31 01:36:25;;;;;;;4.4;2.8;;;;;;;10.36;79.29785;947.9788;;;;
2019/05/31 01:39:02;;;;;;;4.5;2.3;;;;;;;10.4;77.74219;947.9589;;;;
2019/05/31 01:41:30;;;;;;;3;2.3;;;;;;;10.48;77.0127;948.0673;;;;
2019/05/31 01:44:04;;;;;;;4.9;2.2;;;;;;;10.54;76.7832;948.0335;;;;
2019/05/31 01:46:51;;;;;;;3.4;2.3;;;;;;;10.45;77.51074;948.0147;;;;
2019/05/31 01:49:36;;;;;;;5;2.4;;;;;;;10.68;77.50586;948.0692;;;;
2019/05/31 01:52:13;;;;;;;2.9;2.4;;;;;;;10.42;77.5498;948.0641;;;;
2019/05/31 01:54:57;;;;;;;4.4;2.6;;;;;;;10.71;77.63574;947.9863;;;;
2019/05/31 01:57:26;;;;;;;3.7;2.5;;;;;;;10.6;76.73926;947.9515;;;;
2019/05/31 01:59:59;;;;;;;7.6;2.5;;;;;;;10.83;76.32227;947.9084;;;;
2019/05/31 02:02:32;;;;;;;4.6;2.5;;;;;;;10.84;76.38086;947.9205;;;;
2019/05/31 02:04:58;;;;;;;3.6;2.3;;;;;;;10.62;76.80859;947.9125;;;;
2019/05/31 02:07:52;;;;;;;4.1;2.2;;;;;;;10.66;76.89648;947.9558;;;;
2019/05/31 02:10:34;;;;;;;3.4;2.4;;;;;;;10.62;77.37988;947.883;;;;
2019/05/31 02:13:17;;;;;;;2.8;2;;;;;;;10.47;76.71289;947.8351;;;;
2019/05/31 02:15:47;;;;;;;2.9;2.1;;;;;;;10.46;77.07715;947.8484;;;;
2019/05/31 02:18:19;;;;;;;6.4;2.5;;;;;;;10.47;77.51367;947.8942;;;;
2019/05/31 02:20:44;;;;;;;3.8;2.5;;;;;;;10.6;77.94727;947.867;;;;
2019/05/31 02:23:30;;;;;;;4;2.6;;;;;;;10.28;78.90625;947.8753;;;;
2019/05/31 02:26:00;;;;;;;3.5;2.7;;;;;;;9.97;80.41211;947.8005;;;;
2019/05/31 02:28:33;;;;;;;2.8;2.4;;;;;;;9.94;80.49902;947.8664;;;;
2019/05/31 02:31:03;;;;;;;3.5;2.4;;;;;;;10.38;78.98145;947.8756;;;;
2019/05/31 02:33:41;;;;;;;3.6;2.4;;;;;;;10.18;79.15039;947.8778;;;;
2019/05/31 02:36:11;;;;;;;4.1;2.2;;;;;;;10.11;79.34277;947.7941;;;;
2019/05/31 02:38:44;;;;;;;5.4;2.1;;;;;;;10.22;78.98633;947.8205;;;;
2019/05/31 02:41:15;;;;;;;6.1;2.4;;;;;;;10.41;78.87207;947.7888;;;;
2019/05/31 02:43:46;;;;;;;4.3;2.3;;;;;;;10.51;77.75977;947.8019;;;;
2019/05/31 02:46:12;;;;;;;3.1;2.1;;;;;;;10.53;77.29492;947.8007;;;;
2019/05/31 02:48:38;;;;;;;3;2.2;;;;;;;10.66;76.67969;947.8411;;;;
2019/05/31 02:51:22;;;;;;;2.7;1.8;;;;;;;10.59;76.72559;947.757;;;;
2019/05/31 02:53:50;;;;;;;5;2.1;;;;;;;10.67;77.33203;947.7297;;;;
2019/05/31 02:56:16;;;;;;;4.9;2.2;;;;;;;10.52;77.93262;947.7122;;;;
2019/05/31 02:58:55;;;;;;;3.5;2;;;;;;;10.25;78.69434;947.7122;;;;
2019/05/31 03:01:22;;;;;;;4.7;2.2;;;;;;;10.6;78.37207;947.7222;;;;
2019/05/31 03:03:52;;;;;;;3.2;2.1;;;;;;;10.82;76.60449;947.7822;;;;
2019/05/31 03:06:25;;;;;;;4;2.2;;;;;;;10.94;76.18066;947.7682;;;;
2019/05/31 03:08:52;;;;;;;4.1;2.3;;;;;;;11.16;75.92188;947.7377;;;;
2019/05/31 03:11:51;;;;;;;4.5;2.3;;;;;;;11.2;75.81348;947.7727;;;;
2019/05/31 03:14:24;;;;;;;4.4;2.2;;;;;;;10.97;76.41602;947.7012;;;;
2019/05/31 03:16:57;;;;;;;3.6;2;;;;;;;10.61;78.04102;947.7645;;;;
2019/05/31 03:19:33;;;;;;;2.7;1.9;;;;;;;10.51;79.12988;947.6912;;;;
2019/05/31 03:22:01;;;;;;;4.3;2.4;;;;;;;10.61;78.97656;947.7008;;;;
2019/05/31 03:24:27;;;;;;;3.1;2.3;;;;;;;10.79;78.33594;947.6394;;;;
2019/05/31 03:27:12;;;;;;;2.9;2.4;;;;;;;10.57;79.09473;947.6616;;;;
2019/05/31 03:29:45;;;;;;;3.8;2.6;;;;;;;10.48;79.37598;947.7239;;;;
2019/05/31 03:32:16;;;;;;;4;2.5;;;;;;;10.4;79.04395;947.6827;;;;
2019/05/31 03:34:50;;;;;;;4.2;2.7;;;;;;;10.48;79.20508;947.7615;;;;
2019/05/31 03:37:24;;;;;;;6.7;2.7;;;;;;;10.67;78.7373;947.7512;;;;
2019/05/31 03:39:55;;;;;;;3.9;2.6;;;;;;;10.36;79.28613;947.6858;;;;
2019/05/31 03:42:24;;;;;;;7.7;2.9;;;;;;;10.23;80.36816;947.6665;;;;
2019/05/31 03:44:53;;;;;;;5.7;2.9;;;;;;;10.24;79.93652;947.6833;;;;
2019/05/31 03:47:23;;;;;;;5.9;3.1;;;;;;;10.47;79.27051;947.6567;;;;
2019/05/31 03:50:17;;;;;;;5.4;3;;;;;;;10.58;79.09766;947.6945;;;;
2019/05/31 03:52:55;;;;;;;3.7;2.9;;;;;;;10.97;77.11133;947.6462;;;;
2019/05/31 03:55:30;;;;;;;6;3.2;;;;;;;11.02;77.47559;947.6811;;;;
2019/05/31 03:58:04;;;;;;;4.9;3.2;;;;;;;11.22;77.58008;947.6564;;;;
2019/05/31 04:02:52;;;;;;;6.8;3.7;;;;;;;11.42;75.55762;947.7759;;;;
2019/05/31 04:05:26;;;;;;;6.6;3.7;;;;;;;11.09;77.30566;947.7346;;;;
2019/05/31 04:07:54;;;;;;;8.8;3.4;;;;;;;11.15;77.39551;947.7;;;;
2019/05/31 04:10:29;;;;;;;3.8;2.5;;;;;;;10.86;78.4873;947.7489;;;;
2019/05/31 04:12:55;;;;;;;3.2;2.2;;;;;;;10.89;78.86816;947.8061;;;;
2019/05/31 04:15:25;;;;;;;7.2;2.6;;;;;;;11.02;78.0127;947.7791;;;;
2019/05/31 04:17:51;;;;;;;5.1;2.6;;;;;;;10.84;78.36816;947.789;;;;
2019/05/31 04:20:19;;;;;;;3.5;2.5;;;;;;;10.66;78.50684;947.8242;;;;
2019/05/31 04:22:50;;;;;;;3.8;2.2;;;;;;;10.55;78.93164;947.7184;;;;
2019/05/31 04:25:24;;;;;;;2.7;2.2;;;;;;;10.59;78.40234;947.7958;;;;
2019/05/31 04:28:00;;;;;;;5.1;2.5;;;;;;;10.8;78.20215;947.834;;;;
2019/05/31 04:30:29;;;;;;;5.7;3.2;;;;;;;11.11;77.78906;947.8817;;;;
2019/05/31 04:33:01;;;;;;;7.3;3.7;;;;;;;10.99;77.99609;947.9081;;;;
2019/05/31 04:35:31;;;;;;;6.5;4;;;;;;;11.16;77.7168;947.9289;;;;
2019/05/31 04:37:57;;;;;;;6.3;3.1;;;;;;;10.83;78.24121;947.9211;;;;
2019/05/31 04:40:31;;;;;;;9.2;3.1;;;;;;;11.01;78.05664;947.9451;;;;
2019/05/31 04:43:02;;;;;;;6.6;3.2;;;;;;;11.35;76.65234;947.9686;;;;
2019/05/31 04:45:39;;;;;;;4.3;3.2;;;;;;;11.71;75.40137;947.973;;;;
2019/05/31 04:48:23;;;;;;;5.6;3.5;;;;;;;11.82;75.95703;947.9478;;;;
2019/05/31 04:50:54;;;;;;;4.9;2.8;;;;;;;11.75;76.11816;947.9697;;;;
2019/05/31 04:53:38;;;;;;;5.4;3;;;;;;;11.87;75.7832;948.0453;;;;
2019/05/31 04:56:18;;;;;;;4.4;2.5;;;;;;;11.99;74.30273;948.0228;;;;
2019/05/31 04:58:55;;;;;;;4.8;2.7;;;;;;;11.91;76.28223;948.0596;;;;
2019/05/31 05:01:35;;;;;;;4;2.2;;;;;;;11.87;74.80957;947.9816;;;;
2019/05/31 05:04:20;;;;;;;6.6;2.9;;;;;;;11.9;74.35645;948.0051;;;;
2019/05/31 05:06:54;;;;;;;6.5;2.6;;;;;;;11.8;75.4502;948.0132;;;;
2019/05/31 05:09:38;;;;;;;3.8;2.8;;;;;;;11.82;75.4668;948.0324;;;;
2019/05/31 05:12:10;;;;;;;6.6;2.5;;;;;;;11.97;74.79102;948.08;;;;
2019/05/31 05:14:29;;;;;;;4.3;2.6;;;;;;;12.01;74.44531;948.0552;;;;
2019/05/31 05:16:55;;;;;;;5.6;3.2;;;;;;;12.1;75.33203;948.0941;;;;
2019/05/31 05:19:28;;;;;;;8.1;3.5;;;;;;;11.98;74.21191;948.002;;;;
2019/05/31 05:21:50;;;;;;;13;4.6;;;;;;;11.95;73.75977;948.0471;;;;
2019/05/31 05:24:34;;;;;;;14.2;5.7;;;;;;;12.02;75.34082;948.0327;;;;
2019/05/31 05:27:06;;;;;;;5.6;3.5;;;;;;;12.13;73.22754;947.9813;;;;
2019/05/31 05:29:46;;;;;;;5.8;3.4;;;;;;;12.29;73.38086;948.0397;;;;
2019/05/31 05:32:13;;;;;;;5.1;2.8;;;;;;;12.49;73.5752;948.0012;;;;
2019/05/31 05:34:45;;;;;;;9.4;3.3;;;;;;;12.56;74.6084;947.9657;;;;
2019/05/31 05:37:30;;;;;;;8.4;4.8;;;;;;;12.43;72.72949;948.0193;;;;
2019/05/31 05:40:02;;;;;;;10.6;4.2;;;;;;;12.32;73.56934;947.9604;;;;
2019/05/31 05:42:31;;;;;;;7.7;3;;;;;;;12.38;72.00781;947.9389;;;;
2019/05/31 05:45:22;;;;;;;9.9;7.6;;;;;;;12.4;71.03613;948.1158;;;;
2019/05/31 05:48:00;;;;;;;10.6;7.2;;;;;;;12.24;72.83301;948.1384;;;;
2019/05/31 05:50:34;;;;;;;7.8;3.3;;;;;;;12.22;71.09766;948.1357;;;;
2019/05/31 05:53:21;;;;;;;7.6;3.2;;;;;;;12.52;72.37598;948.1224;;;;
2019/05/31 05:55:45;;;;;;;5.8;2.9;;;;;;;12.53;71.03516;948.1305;;;;
2019/05/31 06:03:28;;;;;;;5.1;3.2;;;;;;;12.71;68.57324;948.1451;;;;
2019/05/31 06:05:56;;;;;;;7;3.1;;;;;;;12.27;69.94922;948.1694;;;;
2019/05/31 06:08:33;;;;;;;5.3;2.5;;;;;;;12.17;70.91992;948.1689;;;;
2019/05/31 06:10:57;;;;;;;8.7;3.5;;;;;;;12.19;70.0293;948.163;;;;
2019/05/31 06:13:40;;;;;;;6.6;3.5;;;;;;;12.52;71.57324;948.1351;;;;
2019/05/31 06:16:10;;;;;;;6.6;3.5;;;;;;;12.59;71.36719;948.1333;;;;
2019/05/31 06:18:34;;;;;;;7.4;3.8;;;;;;;12.61;71.81543;948.2045;;;;
2019/05/31 06:21:00;;;;;;;8.1;3.7;;;;;;;13;70.79004;948.1238;;;;
2019/05/31 06:23:31;;;;;;;6;3.7;;;;;;;13.17;71.24512;948.198;;;;
2019/05/31 06:25:59;;;;;;;5.8;3.4;;;;;;;13.05;70.1543;948.1497;;;;
2019/05/31 06:28:31;;;;;;;6.9;3.5;;;;;;;12.86;70.97363;948.2174;;;;
2019/05/31 06:31:00;;;;;;;8;4;;;;;;;13.21;71.96191;948.1868;;;;
2019/05/31 06:33:39;;;;;;;10;4.6;;;;;;;12.98;70.66113;948.2234;;;;
2019/05/31 06:36:21;;;;;;;9.2;3.3;;;;;;;13.08;70.50488;948.262;;;;
2019/05/31 06:38:52;;;;;;;11.6;6.8;;;;;;;13.08;73.1582;948.3045;;;;
2019/05/31 06:41:22;;;;;;;14.7;9.5;;;;;;;13.27;72.65039;948.3049;;;;
2019/05/31 06:44:10;;;;;;;9.6;5.3;;;;;;;13.44;70.51758;948.3325;;;;
2019/05/31 06:46:36;;;;;;;7.4;2.8;;;;;;;13.57;69.1123;948.3727;;;;
2019/05/31 06:49:05;;;;;;;5.2;2.7;;;;;;;13.42;69.65234;948.249;;;;
2019/05/31 06:51:39;;;;;;;10;3.3;;;;;;;13.29;70.22852;948.4059;;;;
2019/05/31 06:54:21;;;;;;;7.4;3.4;;;;;;;13.47;70.03906;948.3385;;;;
2019/05/31 06:56:50;;;;;;;7.4;2.9;;;;;;;13.42;70.51465;948.4283;;;;
2019/05/31 06:59:27;;;;;;;6.7;2.4;;;;;;;13.47;68.98145;948.4113;;;;
2019/05/31 07:02:15;;;;;;;4.4;2.7;;;;;;;13.64;69.36523;948.4597;;;;
2019/05/31 07:04:44;;;;;;;4.6;2.3;;;;;;;13.84;66.62598;948.4419;;;;
2019/05/31 07:07:17;;;;;;;4;2.3;;;;;;;13.92;66.26855;948.4436;;;;
2019/05/31 07:10:04;;;;;;;6.1;3.2;;;;;;;13.97;69.14258;948.4387;;;;
2019/05/31 07:12:37;;;;;;;3.3;2.5;;;;;;;14.13;66.15039;948.4667;;;;
2019/05/31 07:14:57;;;;;;;5.6;2.3;;;;;;;14.18;67.55078;948.4623;;;;
2019/05/31 07:17:33;;;;;;;5.1;2.4;;;;;;;14.43;64.87207;948.4822;;;;
2019/05/31 07:20:06;;;;;;;4.3;2.4;;;;;;;14.65;64.00391;948.488;;;;
2019/05/31 07:22:45;;;;;;;6.1;1.8;;;;;;;14.95;61.32715;948.5145;;;;
2019/05/31 07:25:17;;;;;;;4.8;1.9;;;;;;;14.95;62.97656;948.5233;;;;
2019/05/31 07:27:44;;;;;;;3.7;1.9;;;;;;;15.02;60.78223;948.5514;;;;
2019/05/31 07:30:14;;;;;;;4.9;2.1;;;;;;;14.93;62.13184;948.5167;;;;
2019/05/31 07:32:47;;;;;;;3.9;2.1;;;;;;;14.82;62.94531;948.5533;;;;
2019/05/31 07:35:23;;;;;;;4.5;2.1;;;;;;;14.84;62.99512;948.5038;;;;
2019/05/31 07:38:06;;;;;;;5.9;2.2;;;;;;;14.88;65.29688;948.5339;;;;
2019/05/31 07:40:29;;;;;;;4;1.9;;;;;;;14.91;63.55957;948.5831;;;;
2019/05/31 07:42:58;;;;;;;7.5;2.8;;;;;;;14.91;63.59375;948.531;;;;
2019/05/31 07:45:30;;;;;;;5.5;2.8;;;;;;;14.55;66.7002;948.5862;;;;
2019/05/31 07:47:58;;;;;;;5.3;3.1;;;;;;;14.69;64.27539;948.5478;;;;
2019/05/31 07:50:30;;;;;;;8.7;3.2;;;;;;;14.49;63.38281;948.5582;;;;
2019/05/31 07:53:02;;;;;;;7.3;3;;;;;;;14.23;65.01367;948.5988;;;;
2019/05/31 07:55:35;;;;;;;6.9;3.3;;;;;;;14.45;65.24316;948.5786;;;;
2019/05/31 07:57:55;;;;;;;7.6;3.3;;;;;;;14.3;65.75;948.6261;;;;
2019/05/31 08:00:25;;;;;;;6.4;3;;;;;;;14.44;66.57715;948.5801;;;;
2019/05/31 08:02:49;;;;;;;8.3;2.8;;;;;;;14.41;67.14941;948.5567;;;;
2019/05/31 08:05:22;;;;;;;5.9;2.5;;;;;;;14.42;66.79492;948.5171;;;;
2019/05/31 08:07:53;;;;;;;6.1;2.3;;;;;;;14.28;65.54004;948.5553;;;;
2019/05/31 08:10:38;;;;;;;4.5;2.2;;;;;;;14.23;64.32324;948.5563;;;;
2019/05/31 08:13:06;;;;;;;7.1;2.2;;;;;;;14.59;65.63281;948.5144;;;;
2019/05/31 08:15:38;;;;;;;5.8;2.2;;;;;;;14.72;63.47363;948.4977;;;;
2019/05/31 08:18:12;;;;;;;7.8;2.9;;;;;;;14.28;63.73242;948.5303;;;;
2019/05/31 08:20:43;;;;;;;5.6;2.2;;;;;;;14.32;64.07129;948.4667;;;;
2019/05/31 08:23:09;;;;;;;3.1;1.8;;;;;;;13.67;64.81543;948.4913;;;;
2019/05/31 08:25:46;;;;;;;4;2.3;;;;;;;13.99;65.31445;948.5303;;;;
2019/05/31 08:28:10;;;;;;;6.1;2.4;;;;;;;14.37;64.75781;948.5178;;;;
2019/05/31 08:30:45;;;;;;;4.3;2.2;;;;;;;14.74;64.08789;948.5772;;;;
2019/05/31 08:33:07;;;;;;;7.5;2.5;;;;;;;14.51;62.70508;948.552;;;;
2019/05/31 08:35:40;;;;;;;4.2;2.2;;;;;;;14.74;62.33398;948.505;;;;
2019/05/31 08:38:13;;;;;;;5.5;2.2;;;;;;;15.02;62.55859;948.5555;;;;
2019/05/31 08:40:36;;;;;;;7.4;2.1;;;;;;;15.22;62.91113;948.5535;;;;
2019/05/31 08:43:10;;;;;;;4.2;2;;;;;;;15.21;61.74609;948.5452;;;;
2019/05/31 08:45:42;;;;;;;7.3;1.9;;;;;;;15.19;60.41504;948.573;;;;
2019/05/31 08:48:41;;;;;;;4.4;1.9;;;;;;;14.9;60.60449;948.6479;;;;
2019/05/31 08:51:23;;;;;;;7.5;2;;;;;;;15.05;61.99805;948.5695;;;;
2019/05/31 08:53:57;;;;;;;5.7;2.1;;;;;;;14.81;62.2998;948.6131;;;;
2019/05/31 08:56:26;;;;;;;6.1;1.9;;;;;;;14.75;61.78418;948.5203;;;;
2019/05/31 08:58:56;;;;;;;8.4;2.3;;;;;;;14.42;63.12012;948.5211;;;;
2019/05/31 09:01:27;;;;;;;5.4;1.9;;;;;;;14.73;61.96484;948.5786;;;;
2019/05/31 09:04:02;;;;;;;3.9;2.4;;;;;;;14.68;61.1748;948.5574;;;;
2019/05/31 09:06:35;;;;;;;2.9;1.9;;;;;;;14.77;61.18652;948.4716;;;;
2019/05/31 09:09:38;;;;;;;5.4;2.1;;;;;;;14.86;62.43262;948.4511;;;;
2019/05/31 09:12:04;;;;;;;5.9;2.1;;;;;;;14.99;60.33008;948.4724;;;;
2019/05/31 09:14:29;;;;;;;4.3;2.2;;;;;;;15.6;61.52246;948.4702;;;;
2019/05/31 09:17:04;;;;;;;6.8;2.3;;;;;;;15.92;60.04199;948.5151;;;;
2019/05/31 09:19:29;;;;;;;5.5;2;;;;;;;16.16;58.52441;948.4492;;;;
2019/05/31 09:22:01;;;;;;;5.5;2;;;;;;;16.2;58.58789;948.4534;;;;
2019/05/31 09:24:35;;;;;;;4.9;2.2;;;;;;;16.3;57.4209;948.4694;;;;
2019/05/31 09:27:07;;;;;;;4.8;1.8;;;;;;;16.31;56.89063;948.4942;;;;
2019/05/31 09:29:32;;;;;;;3.8;1.8;;;;;;;16.55;57.95117;948.3755;;;;
2019/05/31 09:32:03;;;;;;;4.4;1.7;;;;;;;16.71;55.48242;948.4666;;;;
2019/05/31 09:34:35;;;;;;;2.9;1.7;;;;;;;16.62;53.73438;948.4106;;;;
2019/05/31 09:37:07;;;;;;;3.7;1.8;;;;;;;16.59;55.07422;948.4874;;;;
2019/05/31 09:39:41;;;;;;;4;1.6;;;;;;;17.02;53.50488;948.4653;;;;
2019/05/31 09:42:06;;;;;;;2.3;1.5;;;;;;;17.12;52.39355;948.4758;;;;
2019/05/31 09:44:35;;;;;;;2.7;1.5;;;;;;;17.24;50.4834;948.5108;;;;
2019/05/31 09:47:07;;;;;;;3.6;1.3;;;;;;;17.21;50.53711;948.4106;;;;
2019/05/31 09:49:31;;;;;;;3.5;1.7;;;;;;;17.15;52.80273;948.4686;;;;
2019/05/31 09:51:57;;;;;;;3.5;1.5;;;;;;;17.22;50.08691;948.427;;;;
2019/05/31 09:54:30;;;;;;;3.7;1.6;;;;;;;17.32;53.1123;948.473;;;;
2019/05/31 09:57:04;;;;;;;2.3;1.5;;;;;;;17.65;50.87793;948.3694;;;;
2019/05/31 09:59:36;;;;;;;3.5;1.5;;;;;;;17.14;49.48633;948.4308;;;;
2019/05/31 10:02:25;;;;;;;5.6;1.7;;;;;;;16.86;50.10352;948.3996;;;;
2019/05/31 10:04:57;;;;;;;4.5;1.6;;;;;;;17.22;50.31738;948.3245;;;;
2019/05/31 10:07:33;;;;;;;1.9;1.3;;;;;;;16.99;47.2207;948.4295;;;;
2019/05/31 10:09:55;;;;;;;2.1;1.4;;;;;;;16.54;47.83301;948.3803;;;;
2019/05/31 10:12:46;;;;;;;2.2;1.6;;;;;;;16.78;48.63379;948.3742;;;;
2019/05/31 10:15:14;;;;;;;2.3;1.3;;;;;;;17;46.87402;948.3773;;;;
2019/05/31 10:17:42;;;;;;;2.2;1.3;;;;;;;16.74;46.83496;948.2881;;;;
2019/05/31 10:20:09;;;;;;;2;1.3;;;;;;;17.02;46.70215;948.3193;;;;
2019/05/31 10:22:49;;;;;;;2.1;1.4;;;;;;;16.95;45.24609;948.3225;;;;
2019/05/31 10:25:15;;;;;;;2.1;1.4;;;;;;;17.64;48.78809;948.259;;;;
2019/05/31 10:27:43;;;;;;;2.8;1.4;;;;;;;17.73;47.06836;948.2238;;;;
2019/05/31 10:30:11;;;;;;;2.1;1.4;;;;;;;18.23;45.22754;948.1876;;;;
2019/05/31 10:32:54;;;;;;;7.3;1.6;;;;;;;18.58;44.93848;948.2047;;;;
2019/05/31 10:35:31;;;;;;;3.5;1.6;;;;;;;18.76;48.26074;948.1333;;;;
2019/05/31 10:38:05;;;;;;;4.1;1.7;;;;;;;19.02;48.42773;948.2255;;;;
2019/05/31 10:40:33;;;;;;;3.1;1.6;;;;;;;18.84;46.72168;948.1976;;;;
2019/05/31 10:43:05;;;;;;;3.7;1.5;;;;;;;18.85;49.12012;948.2145;;;;
2019/05/31 10:45:38;;;;;;;3.2;1.5;;;;;;;18.69;47.20605;948.2322;;;;
2019/05/31 10:48:20;;;;;;;3.2;1.4;;;;;;;18.37;45.87012;948.2192;;;;
2019/05/31 10:50:52;;;;;;;3.4;1.5;;;;;;;18.35;54.33008;948.1395;;;;
2019/05/31 10:53:24;;;;;;;3.7;1.8;;;;;;;18.98;51.70801;948.1603;;;;
2019/05/31 10:55:49;;;;;;;3.8;1.5;;;;;;;19.74;46.97949;948.0883;;;;
2019/05/31 10:58:22;;;;;;;3.6;1.5;;;;;;;20.29;48.55664;948.0894;;;;
2019/05/31 11:01:10;;;;;;;2.2;1.4;;;;;;;21.04;42.52246;948.0829;;;;
2019/05/31 11:03:54;;;;;;;5.2;1.6;;;;;;;21.37;39.9209;947.9867;;;;
2019/05/31 11:06:20;;;;;;;3.2;1.6;;;;;;;21.59;41.25195;948.0165;;;;
2019/05/31 11:08:53;;;;;;;5.7;1.4;;;;;;;22.22;40.8418;948.0084;;;;
2019/05/31 11:11:32;;;;;;;3.4;1.5;;;;;;;23.19;38.62793;948.0019;;;;
2019/05/31 11:14:05;;;;;;;4.6;1.5;;;;;;;23.9;38.18359;948.0009;;;;
2019/05/31 11:16:33;;;;;;;3.2;1.4;;;;;;;24.36;37.50391;947.8972;;;;
2019/05/31 11:19:05;;;;;;;3;1.3;;;;;;;23.02;38.63574;947.8984;;;;
2019/05/31 11:21:47;;;;;;;3.3;1.5;;;;;;;22.58;37.76465;947.8935;;;;
2019/05/31 11:24:26;;;;;;;4.2;1.3;;;;;;;22.55;39.21777;947.8405;;;;
2019/05/31 11:26:53;;;;;;;5.1;1.6;;;;;;;22.79;37.4541;947.8014;;;;
2019/05/31 11:29:26;;;;;;;10.1;1.6;;;;;;;23.91;38.125;947.7916;;;;
2019/05/31 11:31:59;;;;;;;6.6;1.6;;;;;;;24.32;36.02734;947.716;;;;
2019/05/31 11:34:52;;;;;;;3.1;1.6;;;;;;;23.57;36.41406;947.6845;;;;
2019/05/31 11:37:33;;;;;;;2.7;1.5;;;;;;;22.8;36.84473;947.6315;;;;
2019/05/31 11:40:26;;;;;;;3.7;1.6;;;;;;;23.49;35.80859;947.5681;;;;
2019/05/31 11:42:51;;;;;;;4;1.6;;;;;;;23.94;35.0791;947.5481;;;;
2019/05/31 11:45:22;;;;;;;4;1.7;;;;;;;24.16;34.30664;947.5497;;;;
2019/05/31 11:48:06;;;;;;;5.1;1.6;;;;;;;24.1;38.25977;947.4878;;;;
2019/05/31 11:50:33;;;;;;;2.1;1.5;;;;;;;24.51;33.32031;947.495;;;;
2019/05/31 11:53:20;;;;;;;4;1.3;;;;;;;23.36;35.32715;947.52;;;;
2019/05/31 11:55:46;;;;;;;3.4;1.4;;;;;;;23.02;36.90918;947.4394;;;;
2019/05/31 11:58:24;;;;;;;3.6;1.4;;;;;;;22.6;40.03125;947.4019;;;;
2019/05/31 12:00:51;;;;;;;2.1;1.3;;;;;;;22.72;40.4541;947.2905;;;;
2019/05/31 12:03:23;;;;;;;3.5;1.4;;;;;;;22.83;40.27539;947.3862;;;;
2019/05/31 12:06:08;;;;;;;3.9;1.4;;;;;;;23.25;37.66895;947.375;;;;
2019/05/31 12:08:42;;;;;;;2.6;1.4;;;;;;;23.32;37.70996;947.2999;;;;
2019/05/31 12:11:19;;;;;;;3.9;1.3;;;;;;;23.06;39.97949;947.2556;;;;
2019/05/31 12:13:56;;;;;;;3.8;1.4;;;;;;;22.5;39.3418;947.1939;;;;
2019/05/31 12:16:14;;;;;;;2.9;1.1;;;;;;;22.11;37.57227;947.265;;;;
2019/05/31 12:18:42;;;;;;;4;1.5;;;;;;;22.69;38.4668;947.2215;;;;
2019/05/31 12:21:14;;;;;;;3.6;1.2;;;;;;;22.67;40.00195;947.2375;;;;
2019/05/31 12:23:44;;;;;;;3.6;1;;;;;;;22.81;38.91211;947.1837;;;;
2019/05/31 12:26:14;;;;;;;3.9;1.2;;;;;;;23.49;36.77246;947.2049;;;;
2019/05/31 12:28:41;;;;;;;4.7;1.1;;;;;;;23.72;36.67285;947.205;;;;
2019/05/31 12:31:05;;;;;;;4.6;1.2;;;;;;;23.73;37.63867;947.1559;;;;
2019/05/31 12:33:44;;;;;;;2.5;1.4;;;;;;;24.05;37.53711;947.1785;;;;
2019/05/31 12:36:23;;;;;;;2.9;1.4;;;;;;;23;39.52734;947.1074;;;;
2019/05/31 12:38:56;;;;;;;2.5;1.2;;;;;;;22.77;36.67773;947.0847;;;;
2019/05/31 12:41:27;;;;;;;1.6;1.1;;;;;;;23.09;36.45703;947.1177;;;;
2019/05/31 12:43:53;;;;;;;3.4;1.2;;;;;;;23.27;37.12988;947.1548;;;;
2019/05/31 12:46:41;;;;;;;2.7;1.2;;;;;;;23.66;37.29199;947.1522;;;;
2019/05/31 12:49:09;;;;;;;3.5;1.3;;;;;;;23.17;36.89844;947.1297;;;;
2019/05/31 12:51:45;;;;;;;2.5;1;;;;;;;23.45;36.98047;947.1839;;;;
2019/05/31 12:54:12;;;;;;;2.1;1;;;;;;;23.58;38.6377;947.1541;;;;
2019/05/31 12:56:44;;;;;;;1.9;1.3;;;;;;;23.56;40.87012;947.1347;;;;
2019/05/31 12:59:16;;;;;;;2.4;1.2;;;;;;;23.5;37.7373;947.1158;;;;
2019/05/31 13:01:51;;;;;;;4;1.4;;;;;;;23.82;39.75391;947.0215;;;;
2019/05/31 13:04:16;;;;;;;1.8;1.1;;;;;;;23.79;38.91504;947.0656;;;;
2019/05/31 13:06:54;;;;;;;2.4;1.2;;;;;;;23.88;39.64063;946.9666;;;;
2019/05/31 13:09:13;;;;;;;4.1;1.2;;;;;;;23.6;39.06348;946.9608;;;;
2019/05/31 13:11:43;;;;;;;3.1;1.2;;;;;;;23.86;38.99121;946.9565;;;;
2019/05/31 13:14:23;;;;;;;8;2.7;;;;;;;23.94;36.71582;946.9453;;;;
2019/05/31 13:16:58;;;;;;;3.6;1.6;;;;;;;23.47;40.875;947.0118;;;;
2019/05/31 13:19:33;;;;;;;23.1;6.9;;;;;;;23.45;39.27344;946.9799;;;;
2019/05/31 13:22:00;;;;;;;20.1;7;;;;;;;23.04;39.64844;946.9688;;;;
2019/05/31 13:24:36;;;;;;;4.4;1.6;;;;;;;23.51;38.58496;946.9677;;;;
2019/05/31 13:27:02;;;;;;;4.7;1.1;;;;;;;23.5;39.3252;947.0117;;;;
2019/05/31 13:29:42;;;;;;;3.3;1;;;;;;;24.17;38.59473;946.9236;;;;
2019/05/31 13:32:15;;;;;;;1.7;1.1;;;;;;;24.79;36.73828;946.8478;;;;
2019/05/31 13:34:45;;;;;;;5.5;1.3;;;;;;;24.99;36.91992;946.9161;;;;
2019/05/31 13:37:19;;;;;;;2.9;1.1;;;;;;;24.39;37.89551;946.8378;;;;
2019/05/31 13:40:05;;;;;;;2;1.1;;;;;;;24.49;38.12793;946.7634;;;;
2019/05/31 13:42:28;;;;;;;2.6;1;;;;;;;24.23;36.64453;946.7502;;;;
2019/05/31 13:45:01;;;;;;;2.7;1.2;;;;;;;24.77;37.75;946.6775;;;;
2019/05/31 13:47:40;;;;;;;1.8;0.9;;;;;;;24.57;36.7793;946.6906;;;;
2019/05/31 13:50:25;;;;;;;1.7;1;;;;;;;24.65;34.87695;946.6703;;;;
2019/05/31 13:52:54;;;;;;;4.4;1.1;;;;;;;25.13;36.36426;946.5672;;;;
2019/05/31 13:55:22;;;;;;;1.3;0.8;;;;;;;25.31;35.57617;946.4985;;;;
2019/05/31 13:57:55;;;;;;;3.4;1;;;;;;;24.48;37.08984;946.4688;;;;
2019/05/31 14:00:15;;;;;;;2;1;;;;;;;24.02;36.22754;946.4222;;;;
2019/05/31 14:02:46;;;;;;;3.5;0.8;;;;;;;23.8;37.33887;946.47;;;;
2019/05/31 14:05:13;;;;;;;2.3;1;;;;;;;24.37;35.4541;946.4622;;;;
2019/05/31 14:07:45;;;;;;;4.4;1.1;;;;;;;24.56;37.02539;946.3279;;;;
2019/05/31 14:10:22;;;;;;;1.9;0.9;;;;;;;23.89;36.12207;946.3667;;;;
2019/05/31 14:12:46;;;;;;;2.9;1;;;;;;;24.48;36.06348;946.3786;;;;
2019/05/31 14:15:13;;;;;;;3.5;0.9;;;;;;;24.91;36.79395;946.2715;;;;
2019/05/31 14:17:46;;;;;;;1.1;0.9;;;;;;;23.66;37.26758;946.3323;;;;
2019/05/31 14:20:20;;;;;;;1.6;0.8;;;;;;;24.1;35.62109;946.3469;;;;
2019/05/31 14:22:52;;;;;;;1.6;0.9;;;;;;;24.81;34.74609;946.2761;;;;
2019/05/31 14:25:25;;;;;;;3.6;1;;;;;;;25.09;36.08984;946.2986;;;;
2019/05/31 14:28:03;;;;;;;1;0.8;;;;;;;25.26;35.91406;946.2752;;;;
2019/05/31 14:30:38;;;;;;;2.1;0.9;;;;;;;25.06;35.0957;946.2639;;;;
2019/05/31 14:33:05;;;;;;;1.3;0.8;;;;;;;24.55;35.40918;946.2558;;;;
2019/05/31 14:35:33;;;;;;;1.5;0.9;;;;;;;24.32;36.89941;946.2872;;;;
2019/05/31 14:37:59;;;;;;;1.1;0.8;;;;;;;23.98;37.83691;946.2841;;;;
2019/05/31 14:40:33;;;;;;;4.7;1;;;;;;;24.02;39.30078;946.2659;;;;
2019/05/31 14:43:11;;;;;;;1.4;0.7;;;;;;;24.54;36.64648;946.2048;;;;
2019/05/31 14:45:43;;;;;;;1.1;0.8;;;;;;;24.19;36.7002;946.2392;;;;
2019/05/31 14:48:11;;;;;;;1.8;0.9;;;;;;;23.6;37.00488;946.2531;;;;
2019/05/31 14:50:32;;;;;;;1.7;0.8;;;;;;;22.73;38.03613;946.1811;;;;
2019/05/31 14:52:57;;;;;;;1.1;0.8;;;;;;;23.38;38.03223;946.1742;;;;
2019/05/31 14:55:26;;;;;;;1.8;0.8;;;;;;;23.58;36.14355;946.1652;;;;
2019/05/31 14:57:50;;;;;;;2.5;0.7;;;;;;;23.79;36.6084;946.1456;;;;
2019/05/31 15:00:23;;;;;;;2.6;0.8;;;;;;;24.02;37.00391;946.2019;;;;
2019/05/31 15:03:01;;;;;;;1.8;0.9;;;;;;;24.36;36.59668;946.1636;;;;
2019/05/31 15:05:28;;;;;;;1.7;0.7;;;;;;;23.94;37.04492;946.1422;;;;